createdAt,value
2022-11-02T00:07:54.733Z,2.15
2022-11-02T00:18:01.829Z,2.17
2022-11-02T00:28:03.927Z,2.28
2022-11-02T00:38:07.560Z,1.65
2022-11-02T00:48:09.641Z,3.53
2022-11-02T00:58:12.972Z,3.70
2022-11-02T01:08:14.832Z,4.93
2022-11-02T01:18:18.227Z,1.40
2022-11-02T01:28:20.424Z,1.42
2022-11-02T01:38:24.132Z,1.50
2022-11-02T01:48:30.938Z,1.90
2022-11-02T01:58:34.439Z,1.73
2022-11-02T02:08:40.722Z,2.28
2022-11-02T02:18:48.631Z,3.17
2022-11-02T02:28:55.291Z,1.83
2022-11-02T02:39:03.216Z,1.67
2022-11-02T02:49:10.187Z,1.55
2022-11-02T02:59:20.494Z,1.95
2022-11-02T03:19:38.073Z,1.60
2022-11-02T03:29:48.951Z,3.05
2022-11-02T03:39:54.210Z,2.28
2022-11-02T03:49:58.595Z,2.58
2022-11-02T04:00:07.975Z,2.45
2022-11-02T04:10:11.360Z,3.47
2022-11-02T04:20:13.352Z,2.65
2022-11-02T04:30:18.771Z,2.00
2022-11-02T04:40:20.675Z,3.25
2022-11-02T04:50:23.928Z,2.10
2022-11-02T05:00:25.879Z,4.35
2022-11-02T05:10:29.147Z,2.38
2022-11-02T05:20:31.155Z,2.28
2022-11-02T05:30:35.650Z,2.35
2022-11-02T05:40:37.615Z,2.88
2022-11-02T05:50:40.876Z,2.10
2022-11-02T06:00:42.763Z,2.55
2022-11-02T06:10:46.015Z,2.17
2022-11-02T06:20:47.883Z,2.17
2022-11-02T06:30:51.311Z,1.88
2022-11-02T06:40:54.011Z,3.90
2022-11-02T06:50:57.859Z,2.50
2022-11-02T07:01:01.758Z,3.10
2022-11-02T07:11:05.480Z,2.50
2022-11-02T07:21:07.732Z,2.08
2022-11-02T07:31:11.075Z,2.70
2022-11-02T07:41:12.987Z,3.03
2022-11-02T07:51:16.422Z,3.55
2022-11-02T08:01:18.348Z,2.83
2022-11-02T08:11:21.702Z,2.38
2022-11-02T08:21:23.665Z,3.95
2022-11-02T08:31:26.936Z,2.78
2022-11-02T08:41:28.867Z,3.70
2022-11-02T08:51:32.148Z,4.00
2022-11-02T09:01:34.119Z,3.22
2022-11-02T09:11:37.410Z,2.50
2022-11-02T09:21:39.329Z,2.60
2022-11-02T09:31:42.692Z,2.80
2022-11-02T09:41:51.037Z,2.72
2022-11-02T09:51:56.821Z,3.78
2022-11-02T10:02:05.672Z,2.88
2022-11-02T10:12:13.010Z,4.22
2022-11-02T10:22:16.031Z,5.38
2022-11-02T10:32:19.340Z,3.03
2022-11-02T10:42:42.048Z,4.00
2022-11-02T10:52:46.879Z,3.40
2022-11-02T11:03:03.302Z,2.97
2022-11-02T11:23:40.719Z,2.80
2022-11-02T11:33:47.039Z,5.00
2022-11-02T11:43:51.193Z,3.17
2022-11-02T11:54:24.454Z,3.95
2022-11-02T12:04:37.423Z,3.30
2022-11-02T12:14:55.447Z,3.92
2022-11-02T12:25:12.555Z,3.78
2022-11-02T12:35:33.647Z,6.00
2022-11-02T12:45:44.739Z,6.43
2022-11-02T12:55:52.376Z,4.53
2022-11-02T13:06:00.139Z,5.57
2022-11-02T13:16:05.648Z,3.70
2022-11-02T13:26:12.338Z,3.17
2022-11-02T13:36:15.901Z,4.55
2022-11-02T13:46:33.246Z,4.57
2022-11-02T13:56:37.403Z,4.82
2022-11-02T14:06:51.775Z,4.75
2022-11-02T14:17:09.409Z,5.00
2022-11-02T14:27:29.907Z,4.68
2022-11-02T14:37:48.742Z,5.85
2022-11-02T14:47:57.461Z,4.65
2022-11-02T14:58:07.940Z,6.50
2022-11-02T15:08:23.753Z,6.78
2022-11-02T15:18:35.273Z,4.18
2022-11-02T15:28:37.644Z,4.22
2022-11-02T15:38:41.131Z,4.50
2022-11-02T15:48:51.614Z,4.10
2022-11-02T15:59:14.944Z,6.80
2022-11-02T16:09:32.595Z,4.72
2022-11-02T16:19:35.930Z,3.88
2022-11-02T16:29:37.949Z,7.95
2022-11-02T16:39:45.753Z,5.38
2022-11-02T17:01:01.638Z,4.32
2022-11-02T17:11:06.769Z,5.55
2022-11-02T17:21:29.922Z,7.50
2022-11-02T17:31:53.075Z,4.80
2022-11-02T17:41:57.913Z,4.60
2022-11-02T17:52:00.070Z,4.25
2022-11-02T18:03:11.108Z,4.57
2022-11-02T18:13:13.640Z,5.78
2022-11-02T18:23:17.632Z,4.68
2022-11-02T18:33:19.606Z,4.30
2022-11-02T18:43:22.867Z,5.10
2022-11-02T18:53:43.083Z,5.18
2022-11-02T19:03:48.834Z,3.97
2022-11-02T19:13:51.715Z,4.90
2022-11-02T19:23:55.478Z,3.58
2022-11-02T19:33:58.152Z,5.45
2022-11-02T19:44:01.668Z,4.78
2022-11-02T19:54:03.908Z,4.43
2022-11-02T20:04:07.250Z,5.30
2022-11-02T20:14:09.228Z,6.15
2022-11-02T20:24:12.691Z,4.60
2022-11-02T20:34:14.804Z,6.68
2022-11-02T20:44:18.058Z,5.57
2022-11-02T20:54:20.406Z,6.22
2022-11-02T21:04:23.712Z,6.15
2022-11-02T21:14:25.740Z,6.00
2022-11-02T21:24:29.397Z,4.78
2022-11-02T21:34:31.329Z,8.10
2022-11-02T21:44:35.070Z,5.45
2022-11-02T21:54:37.031Z,5.72
2022-11-02T22:04:40.328Z,4.97
2022-11-02T22:14:43.651Z,5.85
2022-11-02T22:24:46.982Z,4.95
2022-11-02T22:34:48.886Z,6.80
2022-11-02T22:44:52.341Z,6.15
2022-11-02T22:54:54.258Z,3.65
2022-11-02T23:04:57.548Z,2.67
2022-11-02T23:14:59.445Z,2.75
2022-11-02T23:25:04.211Z,4.10
2022-11-02T23:35:06.573Z,3.75
2022-11-02T23:45:11.506Z,3.30
2022-11-02T23:55:13.618Z,3.25
